sensor_id;sensor_type;location;lat;lon;timestamp;P1;durP1;ratioP1;P2;durP2;ratioP2
78889;SDS011;68279;48.964;14.502;2023-10-09T00:00:05;3.50;;;1.63;;
78889;SDS011;68279;48.964;14.502;2023-10-09T00:02:55;3.03;;;1.80;;
78889;SDS011;68279;48.964;14.502;2023-10-09T00:05:24;4.32;;;1.75;;
78889;SDS011;68279;48.964;14.502;2023-10-09T00:08:06;4.47;;;2.22;;
78889;SDS011;68279;48.964;14.502;2023-10-09T00:10:34;3.15;;;1.70;;
78889;SDS011;68279;48.964;14.502;2023-10-09T00:13:18;4.45;;;2.03;;
78889;SDS011;68279;48.964;14.502;2023-10-09T00:15:56;4.47;;;1.92;;
78889;SDS011;68279;48.964;14.502;2023-10-09T00:18:33;3.67;;;2.03;;
78889;SDS011;68279;48.964;14.502;2023-10-09T00:21:00;3.55;;;1.70;;
78889;SDS011;68279;48.964;14.502;2023-10-09T00:23:29;3.55;;;1.73;;
78889;SDS011;68279;48.964;14.502;2023-10-09T00:25:59;2.92;;;2.05;;
78889;SDS011;68279;48.964;14.502;2023-10-09T00:28:36;2.72;;;1.70;;
78889;SDS011;68279;48.964;14.502;2023-10-09T00:31:03;4.07;;;1.80;;
78889;SDS011;68279;48.964;14.502;2023-10-09T00:33:32;3.75;;;1.85;;
78889;SDS011;68279;48.964;14.502;2023-10-09T00:36:04;3.60;;;2.13;;
78889;SDS011;68279;48.964;14.502;2023-10-09T00:38:37;2.70;;;1.77;;
78889;SDS011;68279;48.964;14.502;2023-10-09T00:41:11;3.42;;;1.90;;
78889;SDS011;68279;48.964;14.502;2023-10-09T00:43:40;3.10;;;1.90;;
78889;SDS011;68279;48.964;14.502;2023-10-09T00:46:08;3.45;;;1.90;;
78889;SDS011;68279;48.964;14.502;2023-10-09T00:48:41;4.20;;;2.17;;
78889;SDS011;68279;48.964;14.502;2023-10-09T00:51:08;3.05;;;1.83;;
78889;SDS011;68279;48.964;14.502;2023-10-09T00:53:50;4.18;;;1.67;;
78889;SDS011;68279;48.964;14.502;2023-10-09T00:56:20;3.15;;;1.58;;
78889;SDS011;68279;48.964;14.502;2023-10-09T00:58:53;3.40;;;1.92;;
78889;SDS011;68279;48.964;14.502;2023-10-09T01:01:46;3.15;;;1.92;;
78889;SDS011;68279;48.964;14.502;2023-10-09T01:04:29;3.33;;;1.83;;
78889;SDS011;68279;48.964;14.502;2023-10-09T01:07:02;4.40;;;2.08;;
78889;SDS011;68279;48.964;14.502;2023-10-09T01:09:49;3.60;;;1.85;;
78889;SDS011;68279;48.964;14.502;2023-10-09T01:12:18;3.35;;;2.05;;
78889;SDS011;68279;48.964;14.502;2023-10-09T01:14:44;3.47;;;1.63;;
78889;SDS011;68279;48.964;14.502;2023-10-09T01:17:10;2.83;;;1.70;;
78889;SDS011;68279;48.964;14.502;2023-10-09T01:19:37;2.58;;;1.70;;
78889;SDS011;68279;48.964;14.502;2023-10-09T01:22:03;3.72;;;2.35;;
78889;SDS011;68279;48.964;14.502;2023-10-09T01:24:47;2.80;;;1.60;;
78889;SDS011;68279;48.964;14.502;2023-10-09T01:27:15;3.78;;;1.77;;
78889;SDS011;68279;48.964;14.502;2023-10-09T01:29:41;4.95;;;2.33;;
78889;SDS011;68279;48.964;14.502;2023-10-09T01:32:07;4.25;;;2.35;;
78889;SDS011;68279;48.964;14.502;2023-10-09T01:34:41;2.88;;;1.80;;
78889;SDS011;68279;48.964;14.502;2023-10-09T01:37:15;3.72;;;1.63;;
78889;SDS011;68279;48.964;14.502;2023-10-09T01:39:48;3.92;;;1.98;;
78889;SDS011;68279;48.964;14.502;2023-10-09T01:42:16;2.58;;;1.40;;
78889;SDS011;68279;48.964;14.502;2023-10-09T01:44:59;3.20;;;2.08;;
78889;SDS011;68279;48.964;14.502;2023-10-09T01:47:37;2.88;;;0.85;;
78889;SDS011;68279;48.964;14.502;2023-10-09T01:50:03;4.78;;;2.00;;
78889;SDS011;68279;48.964;14.502;2023-10-09T01:52:30;3.90;;;1.65;;
78889;SDS011;68279;48.964;14.502;2023-10-09T01:54:56;2.65;;;1.42;;
78889;SDS011;68279;48.964;14.502;2023-10-09T01:57:29;3.10;;;2.03;;
78889;SDS011;68279;48.964;14.502;2023-10-09T01:59:55;3.03;;;1.48;;
78889;SDS011;68279;48.964;14.502;2023-10-09T02:02:24;4.65;;;1.63;;
78889;SDS011;68279;48.964;14.502;2023-10-09T02:04:59;4.63;;;1.55;;
78889;SDS011;68279;48.964;14.502;2023-10-09T02:07:50;3.00;;;1.50;;
78889;SDS011;68279;48.964;14.502;2023-10-09T02:10:18;2.45;;;1.70;;
78889;SDS011;68279;48.964;14.502;2023-10-09T02:12:57;2.95;;;1.60;;
78889;SDS011;68279;48.964;14.502;2023-10-09T02:15:27;2.80;;;1.88;;
78889;SDS011;68279;48.964;14.502;2023-10-09T02:18:08;2.67;;;1.45;;
78889;SDS011;68279;48.964;14.502;2023-10-09T02:21:05;2.70;;;1.15;;
78889;SDS011;68279;48.964;14.502;2023-10-09T02:23:33;2.60;;;1.50;;
78889;SDS011;68279;48.964;14.502;2023-10-09T02:26:06;2.13;;;1.27;;
78889;SDS011;68279;48.964;14.502;2023-10-09T02:28:33;2.88;;;1.73;;
78889;SDS011;68279;48.964;14.502;2023-10-09T02:30:59;2.42;;;1.45;;
78889;SDS011;68279;48.964;14.502;2023-10-09T02:33:36;3.03;;;1.85;;
78889;SDS011;68279;48.964;14.502;2023-10-09T02:36:07;2.65;;;1.40;;
78889;SDS011;68279;48.964;14.502;2023-10-09T02:38:34;3.17;;;1.58;;
78889;SDS011;68279;48.964;14.502;2023-10-09T02:41:03;3.70;;;1.48;;
78889;SDS011;68279;48.964;14.502;2023-10-09T02:43:37;2.10;;;1.35;;
78889;SDS011;68279;48.964;14.502;2023-10-09T02:46:16;3.88;;;2.05;;
78889;SDS011;68279;48.964;14.502;2023-10-09T02:48:46;3.63;;;1.67;;
78889;SDS011;68279;48.964;14.502;2023-10-09T02:51:18;3.55;;;1.38;;
78889;SDS011;68279;48.964;14.502;2023-10-09T02:53:51;3.80;;;1.77;;
78889;SDS011;68279;48.964;14.502;2023-10-09T02:56:21;4.88;;;1.40;;
78889;SDS011;68279;48.964;14.502;2023-10-09T02:58:50;4.18;;;2.22;;
78889;SDS011;68279;48.964;14.502;2023-10-09T03:01:16;3.90;;;1.52;;
78889;SDS011;68279;48.964;14.502;2023-10-09T03:03:42;3.08;;;1.83;;
78889;SDS011;68279;48.964;14.502;2023-10-09T03:06:12;3.47;;;2.10;;
78889;SDS011;68279;48.964;14.502;2023-10-09T03:08:39;3.15;;;1.40;;
78889;SDS011;68279;48.964;14.502;2023-10-09T03:11:08;3.00;;;1.65;;
78889;SDS011;68279;48.964;14.502;2023-10-09T03:13:40;3.40;;;1.90;;
78889;SDS011;68279;48.964;14.502;2023-10-09T03:16:08;4.32;;;2.08;;
78889;SDS011;68279;48.964;14.502;2023-10-09T03:18:40;4.70;;;2.33;;
78889;SDS011;68279;48.964;14.502;2023-10-09T03:21:05;4.00;;;2.35;;
78889;SDS011;68279;48.964;14.502;2023-10-09T03:23:31;5.63;;;2.33;;
78889;SDS011;68279;48.964;14.502;2023-10-09T03:25:57;5.45;;;2.35;;
78889;SDS011;68279;48.964;14.502;2023-10-09T03:28:24;8.55;;;2.53;;
78889;SDS011;68279;48.964;14.502;2023-10-09T03:30:49;6.13;;;2.08;;
78889;SDS011;68279;48.964;14.502;2023-10-09T03:33:16;4.97;;;2.15;;
78889;SDS011;68279;48.964;14.502;2023-10-09T03:35:42;5.18;;;2.47;;
78889;SDS011;68279;48.964;14.502;2023-10-09T03:38:08;5.03;;;2.67;;
78889;SDS011;68279;48.964;14.502;2023-10-09T03:40:47;6.10;;;2.67;;
78889;SDS011;68279;48.964;14.502;2023-10-09T03:43:13;5.65;;;2.83;;
78889;SDS011;68279;48.964;14.502;2023-10-09T03:45:40;4.05;;;2.60;;
78889;SDS011;68279;48.964;14.502;2023-10-09T03:48:17;6.20;;;2.97;;
78889;SDS011;68279;48.964;14.502;2023-10-09T03:50:57;4.55;;;2.72;;
78889;SDS011;68279;48.964;14.502;2023-10-09T03:53:46;6.55;;;2.50;;
78889;SDS011;68279;48.964;14.502;2023-10-09T03:56:19;5.13;;;2.88;;
78889;SDS011;68279;48.964;14.502;2023-10-09T03:58:49;6.00;;;2.67;;
78889;SDS011;68279;48.964;14.502;2023-10-09T04:01:19;3.75;;;2.28;;
78889;SDS011;68279;48.964;14.502;2023-10-09T04:03:55;4.70;;;2.55;;
78889;SDS011;68279;48.964;14.502;2023-10-09T04:06:24;5.45;;;2.80;;
78889;SDS011;68279;48.964;14.502;2023-10-09T04:09:03;5.53;;;2.70;;
78889;SDS011;68279;48.964;14.502;2023-10-09T04:11:45;4.32;;;2.92;;
78889;SDS011;68279;48.964;14.502;2023-10-09T04:14:50;7.03;;;3.10;;
78889;SDS011;68279;48.964;14.502;2023-10-09T04:17:20;6.93;;;3.28;;
78889;SDS011;68279;48.964;14.502;2023-10-09T04:19:54;5.90;;;3.13;;
78889;SDS011;68279;48.964;14.502;2023-10-09T04:22:46;6.75;;;4.18;;
78889;SDS011;68279;48.964;14.502;2023-10-09T04:25:31;6.55;;;3.38;;
78889;SDS011;68279;48.964;14.502;2023-10-09T04:28:08;10.48;;;4.22;;
78889;SDS011;68279;48.964;14.502;2023-10-09T04:30:38;6.50;;;3.22;;
78889;SDS011;68279;48.964;14.502;2023-10-09T04:33:10;7.32;;;3.38;;
78889;SDS011;68279;48.964;14.502;2023-10-09T04:35:48;10.50;;;4.03;;
78889;SDS011;68279;48.964;14.502;2023-10-09T04:38:33;8.82;;;4.53;;
78889;SDS011;68279;48.964;14.502;2023-10-09T04:40:59;9.98;;;4.95;;
78889;SDS011;68279;48.964;14.502;2023-10-09T04:43:25;9.00;;;4.43;;
78889;SDS011;68279;48.964;14.502;2023-10-09T04:45:52;7.20;;;4.50;;
78889;SDS011;68279;48.964;14.502;2023-10-09T04:48:38;7.65;;;3.92;;
78889;SDS011;68279;48.964;14.502;2023-10-09T04:51:07;7.47;;;3.97;;
78889;SDS011;68279;48.964;14.502;2023-10-09T04:53:51;11.18;;;4.25;;
78889;SDS011;68279;48.964;14.502;2023-10-09T04:56:46;10.57;;;3.42;;
78889;SDS011;68279;48.964;14.502;2023-10-09T04:59:18;6.63;;;4.43;;
78889;SDS011;68279;48.964;14.502;2023-10-09T05:01:44;7.90;;;3.45;;
78889;SDS011;68279;48.964;14.502;2023-10-09T05:04:15;7.97;;;4.88;;
78889;SDS011;68279;48.964;14.502;2023-10-09T05:06:51;10.45;;;4.35;;
78889;SDS011;68279;48.964;14.502;2023-10-09T05:09:21;10.35;;;4.63;;
78889;SDS011;68279;48.964;14.502;2023-10-09T05:11:47;9.73;;;4.90;;
78889;SDS011;68279;48.964;14.502;2023-10-09T05:14:34;9.98;;;4.97;;
78889;SDS011;68279;48.964;14.502;2023-10-09T05:17:04;9.80;;;4.80;;
78889;SDS011;68279;48.964;14.502;2023-10-09T05:19:35;10.93;;;4.57;;
78889;SDS011;68279;48.964;14.502;2023-10-09T05:22:19;9.45;;;4.47;;
78889;SDS011;68279;48.964;14.502;2023-10-09T05:25:03;6.75;;;3.97;;
78889;SDS011;68279;48.964;14.502;2023-10-09T05:27:40;12.52;;;4.88;;
78889;SDS011;68279;48.964;14.502;2023-10-09T05:30:15;9.48;;;4.13;;
78889;SDS011;68279;48.964;14.502;2023-10-09T05:32:52;8.15;;;4.50;;
78889;SDS011;68279;48.964;14.502;2023-10-09T05:35:24;9.15;;;4.60;;
78889;SDS011;68279;48.964;14.502;2023-10-09T05:38:07;8.93;;;4.68;;
78889;SDS011;68279;48.964;14.502;2023-10-09T05:40:49;8.40;;;4.57;;
78889;SDS011;68279;48.964;14.502;2023-10-09T05:43:19;7.85;;;4.75;;
78889;SDS011;68279;48.964;14.502;2023-10-09T05:46:05;12.02;;;5.65;;
78889;SDS011;68279;48.964;14.502;2023-10-09T05:48:34;9.75;;;4.68;;
78889;SDS011;68279;48.964;14.502;2023-10-09T05:51:03;10.23;;;5.07;;
78889;SDS011;68279;48.964;14.502;2023-10-09T05:53:35;7.07;;;4.05;;
78889;SDS011;68279;48.964;14.502;2023-10-09T05:56:09;9.10;;;4.85;;
78889;SDS011;68279;48.964;14.502;2023-10-09T05:58:54;9.43;;;4.95;;
78889;SDS011;68279;48.964;14.502;2023-10-09T06:01:32;14.18;;;6.13;;
78889;SDS011;68279;48.964;14.502;2023-10-09T06:04:17;13.20;;;5.22;;
78889;SDS011;68279;48.964;14.502;2023-10-09T06:06:44;11.25;;;5.53;;
78889;SDS011;68279;48.964;14.502;2023-10-09T06:09:14;9.60;;;5.13;;
78889;SDS011;68279;48.964;14.502;2023-10-09T06:11:44;9.73;;;4.75;;
78889;SDS011;68279;48.964;14.502;2023-10-09T06:14:20;8.43;;;4.40;;
78889;SDS011;68279;48.964;14.502;2023-10-09T06:16:55;9.55;;;5.15;;
78889;SDS011;68279;48.964;14.502;2023-10-09T06:19:22;8.93;;;4.70;;
78889;SDS011;68279;48.964;14.502;2023-10-09T06:21:48;9.20;;;4.78;;
78889;SDS011;68279;48.964;14.502;2023-10-09T06:24:29;9.25;;;4.78;;
78889;SDS011;68279;48.964;14.502;2023-10-09T06:27:06;10.73;;;5.00;;
78889;SDS011;68279;48.964;14.502;2023-10-09T06:29:32;7.97;;;4.28;;
78889;SDS011;68279;48.964;14.502;2023-10-09T06:32:04;11.85;;;5.50;;
78889;SDS011;68279;48.964;14.502;2023-10-09T06:34:46;8.05;;;3.67;;
78889;SDS011;68279;48.964;14.502;2023-10-09T06:37:40;9.65;;;5.07;;
78889;SDS011;68279;48.964;14.502;2023-10-09T06:40:26;7.88;;;4.50;;
78889;SDS011;68279;48.964;14.502;2023-10-09T06:43:17;7.43;;;3.63;;
78889;SDS011;68279;48.964;14.502;2023-10-09T06:45:46;9.70;;;4.25;;
78889;SDS011;68279;48.964;14.502;2023-10-09T06:48:19;7.47;;;3.63;;
78889;SDS011;68279;48.964;14.502;2023-10-09T06:51:04;7.28;;;4.15;;
78889;SDS011;68279;48.964;14.502;2023-10-09T06:53:50;9.77;;;4.22;;
78889;SDS011;68279;48.964;14.502;2023-10-09T06:56:30;6.47;;;3.72;;
78889;SDS011;68279;48.964;14.502;2023-10-09T06:58:56;9.63;;;4.63;;
78889;SDS011;68279;48.964;14.502;2023-10-09T07:01:40;7.05;;;3.83;;
78889;SDS011;68279;48.964;14.502;2023-10-09T07:04:09;6.93;;;3.60;;
78889;SDS011;68279;48.964;14.502;2023-10-09T07:06:45;8.52;;;3.92;;
78889;SDS011;68279;48.964;14.502;2023-10-09T07:09:11;7.55;;;3.90;;
78889;SDS011;68279;48.964;14.502;2023-10-09T07:11:38;6.55;;;4.03;;
78889;SDS011;68279;48.964;14.502;2023-10-09T07:14:05;7.00;;;3.72;;
78889;SDS011;68279;48.964;14.502;2023-10-09T07:16:32;9.95;;;4.07;;
78889;SDS011;68279;48.964;14.502;2023-10-09T07:19:05;8.40;;;3.97;;
78889;SDS011;68279;48.964;14.502;2023-10-09T07:21:49;5.70;;;3.85;;
78889;SDS011;68279;48.964;14.502;2023-10-09T07:24:19;9.90;;;3.83;;
78889;SDS011;68279;48.964;14.502;2023-10-09T07:27:03;5.47;;;3.30;;
78889;SDS011;68279;48.964;14.502;2023-10-09T07:29:37;7.43;;;4.30;;
78889;SDS011;68279;48.964;14.502;2023-10-09T07:32:16;6.88;;;3.85;;
78889;SDS011;68279;48.964;14.502;2023-10-09T07:34:50;7.15;;;3.50;;
78889;SDS011;68279;48.964;14.502;2023-10-09T07:37:22;7.55;;;4.28;;
78889;SDS011;68279;48.964;14.502;2023-10-09T07:39:51;6.13;;;3.97;;
78889;SDS011;68279;48.964;14.502;2023-10-09T07:42:24;5.82;;;3.65;;
78889;SDS011;68279;48.964;14.502;2023-10-09T07:45:09;8.90;;;3.95;;
78889;SDS011;68279;48.964;14.502;2023-10-09T07:47:58;5.68;;;3.85;;
78889;SDS011;68279;48.964;14.502;2023-10-09T07:50:44;8.52;;;3.53;;
78889;SDS011;68279;48.964;14.502;2023-10-09T07:53:25;5.05;;;2.85;;
78889;SDS011;68279;48.964;14.502;2023-10-09T07:55:54;8.75;;;4.20;;
78889;SDS011;68279;48.964;14.502;2023-10-09T07:58:26;8.73;;;4.13;;
78889;SDS011;68279;48.964;14.502;2023-10-09T08:00:55;10.85;;;4.25;;
78889;SDS011;68279;48.964;14.502;2023-10-09T08:03:41;10.73;;;4.40;;
78889;SDS011;68279;48.964;14.502;2023-10-09T08:06:10;7.18;;;4.13;;
78889;SDS011;68279;48.964;14.502;2023-10-09T08:08:56;7.90;;;5.22;;
78889;SDS011;68279;48.964;14.502;2023-10-09T08:11:28;6.95;;;3.92;;
78889;SDS011;68279;48.964;14.502;2023-10-09T08:14:14;8.63;;;5.18;;
78889;SDS011;68279;48.964;14.502;2023-10-09T08:16:58;11.07;;;6.05;;
78889;SDS011;68279;48.964;14.502;2023-10-09T08:19:47;9.05;;;4.82;;
78889;SDS011;68279;48.964;14.502;2023-10-09T08:24:55;6.07;;;4.43;;
78889;SDS011;68279;48.964;14.502;2023-10-09T08:32:45;9.27;;;5.95;;
78889;SDS011;68279;48.964;14.502;2023-10-09T08:35:35;7.78;;;4.43;;
78889;SDS011;68279;48.964;14.502;2023-10-09T08:38:14;10.23;;;4.55;;
78889;SDS011;68279;48.964;14.502;2023-10-09T08:40:42;7.88;;;4.38;;
78889;SDS011;68279;48.964;14.502;2023-10-09T08:45:47;7.72;;;4.40;;
78889;SDS011;68279;48.964;14.502;2023-10-09T08:48:12;10.15;;;5.10;;
78889;SDS011;68279;48.964;14.502;2023-10-09T08:50:42;7.65;;;4.15;;
78889;SDS011;68279;48.964;14.502;2023-10-09T08:53:11;8.27;;;4.25;;
78889;SDS011;68279;48.964;14.502;2023-10-09T08:55:37;6.47;;;4.07;;
78889;SDS011;68279;48.964;14.502;2023-10-09T08:58:06;7.65;;;3.90;;
78889;SDS011;68279;48.964;14.502;2023-10-09T09:00:44;6.63;;;3.85;;
78889;SDS011;68279;48.964;14.502;2023-10-09T09:03:17;6.75;;;3.90;;
78889;SDS011;68279;48.964;14.502;2023-10-09T09:05:47;5.45;;;3.50;;
78889;SDS011;68279;48.964;14.502;2023-10-09T09:08:22;9.35;;;5.03;;
78889;SDS011;68279;48.964;14.502;2023-10-09T09:10:59;8.38;;;3.83;;
78889;SDS011;68279;48.964;14.502;2023-10-09T09:13:48;10.75;;;4.80;;
78889;SDS011;68279;48.964;14.502;2023-10-09T09:16:33;13.55;;;4.20;;
78889;SDS011;68279;48.964;14.502;2023-10-09T09:19:06;8.75;;;4.72;;
78889;SDS011;68279;48.964;14.502;2023-10-09T09:21:56;9.10;;;3.60;;
78889;SDS011;68279;48.964;14.502;2023-10-09T09:24:24;7.30;;;4.18;;
78889;SDS011;68279;48.964;14.502;2023-10-09T09:26:51;6.50;;;3.63;;
78889;SDS011;68279;48.964;14.502;2023-10-09T09:29:38;7.25;;;3.50;;
78889;SDS011;68279;48.964;14.502;2023-10-09T09:32:06;6.95;;;4.03;;
78889;SDS011;68279;48.964;14.502;2023-10-09T09:34:46;8.88;;;3.78;;
78889;SDS011;68279;48.964;14.502;2023-10-09T09:37:24;7.53;;;3.25;;
78889;SDS011;68279;48.964;14.502;2023-10-09T09:40:02;6.32;;;4.40;;
78889;SDS011;68279;48.964;14.502;2023-10-09T09:42:43;6.63;;;3.55;;
78889;SDS011;68279;48.964;14.502;2023-10-09T09:45:13;7.05;;;3.78;;
78889;SDS011;68279;48.964;14.502;2023-10-09T09:47:40;10.63;;;4.50;;
78889;SDS011;68279;48.964;14.502;2023-10-09T09:50:17;6.82;;;3.72;;
78889;SDS011;68279;48.964;14.502;2023-10-09T09:55:24;6.20;;;3.38;;
78889;SDS011;68279;48.964;14.502;2023-10-09T09:57:57;5.75;;;3.25;;
78889;SDS011;68279;48.964;14.502;2023-10-09T10:00:25;6.32;;;3.40;;
78889;SDS011;68279;48.964;14.502;2023-10-09T10:05:59;7.32;;;4.38;;
78889;SDS011;68279;48.964;14.502;2023-10-09T10:08:35;9.48;;;4.18;;
78889;SDS011;68279;48.964;14.502;2023-10-09T10:11:04;7.97;;;3.83;;
78889;SDS011;68279;48.964;14.502;2023-10-09T10:16:15;6.88;;;3.65;;
78889;SDS011;68279;48.964;14.502;2023-10-09T10:18:56;6.88;;;3.75;;
78889;SDS011;68279;48.964;14.502;2023-10-09T10:21:25;7.65;;;3.92;;
78889;SDS011;68279;48.964;14.502;2023-10-09T10:23:58;7.95;;;4.28;;
78889;SDS011;68279;48.964;14.502;2023-10-09T10:26:37;8.82;;;2.97;;
78889;SDS011;68279;48.964;14.502;2023-10-09T10:31:55;6.20;;;2.65;;
78889;SDS011;68279;48.964;14.502;2023-10-09T10:34:21;6.50;;;3.42;;
78889;SDS011;68279;48.964;14.502;2023-10-09T10:36:52;4.95;;;2.70;;
78889;SDS011;68279;48.964;14.502;2023-10-09T10:39:24;8.25;;;3.50;;
78889;SDS011;68279;48.964;14.502;2023-10-09T10:42:08;6.75;;;3.08;;
78889;SDS011;68279;48.964;14.502;2023-10-09T10:44:52;9.48;;;2.80;;
78889;SDS011;68279;48.964;14.502;2023-10-09T10:47:19;5.28;;;2.50;;
78889;SDS011;68279;48.964;14.502;2023-10-09T10:49:58;6.55;;;2.42;;
78889;SDS011;68279;48.964;14.502;2023-10-09T10:52:24;6.45;;;2.83;;
78889;SDS011;68279;48.964;14.502;2023-10-09T10:55:13;6.68;;;3.40;;
78889;SDS011;68279;48.964;14.502;2023-10-09T10:57:44;5.30;;;2.78;;
78889;SDS011;68279;48.964;14.502;2023-10-09T11:00:21;5.82;;;2.97;;
78889;SDS011;68279;48.964;14.502;2023-10-09T11:03:05;4.80;;;2.58;;
78889;SDS011;68279;48.964;14.502;2023-10-09T11:05:42;10.10;;;3.33;;
78889;SDS011;68279;48.964;14.502;2023-10-09T11:08:15;6.32;;;3.10;;
78889;SDS011;68279;48.964;14.502;2023-10-09T11:10:47;6.60;;;2.83;;
78889;SDS011;68279;48.964;14.502;2023-10-09T11:13:25;6.82;;;2.80;;
78889;SDS011;68279;48.964;14.502;2023-10-09T11:15:56;4.93;;;2.38;;
78889;SDS011;68279;48.964;14.502;2023-10-09T11:18:40;6.22;;;2.60;;
78889;SDS011;68279;48.964;14.502;2023-10-09T11:21:15;6.25;;;2.55;;
78889;SDS011;68279;48.964;14.502;2023-10-09T11:23:41;6.65;;;2.63;;
78889;SDS011;68279;48.964;14.502;2023-10-09T11:26:17;5.70;;;2.53;;
78889;SDS011;68279;48.964;14.502;2023-10-09T11:29:10;7.38;;;2.70;;
78889;SDS011;68279;48.964;14.502;2023-10-09T11:32:01;5.57;;;2.58;;
78889;SDS011;68279;48.964;14.502;2023-10-09T11:34:30;5.25;;;2.40;;
78889;SDS011;68279;48.964;14.502;2023-10-09T11:39:35;5.90;;;3.63;;
78889;SDS011;68279;48.964;14.502;2023-10-09T11:42:05;7.22;;;3.25;;
78889;SDS011;68279;48.964;14.502;2023-10-09T11:44:38;8.40;;;3.90;;
78889;SDS011;68279;48.964;14.502;2023-10-09T11:47:11;5.93;;;2.78;;
78889;SDS011;68279;48.964;14.502;2023-10-09T11:49:58;7.18;;;2.60;;
78889;SDS011;68279;48.964;14.502;2023-10-09T11:52:28;7.95;;;3.63;;
78889;SDS011;68279;48.964;14.502;2023-10-09T11:54:57;4.78;;;2.10;;
78889;SDS011;68279;48.964;14.502;2023-10-09T11:57:24;6.55;;;2.53;;
78889;SDS011;68279;48.964;14.502;2023-10-09T12:00:04;5.85;;;2.90;;
78889;SDS011;68279;48.964;14.502;2023-10-09T12:02:50;8.52;;;2.78;;
78889;SDS011;68279;48.964;14.502;2023-10-09T12:05:15;8.02;;;3.60;;
78889;SDS011;68279;48.964;14.502;2023-10-09T12:07:45;6.95;;;3.42;;
78889;SDS011;68279;48.964;14.502;2023-10-09T12:10:21;4.13;;;1.90;;
78889;SDS011;68279;48.964;14.502;2023-10-09T12:12:51;8.30;;;2.30;;
78889;SDS011;68279;48.964;14.502;2023-10-09T12:15:23;6.35;;;2.80;;
78889;SDS011;68279;48.964;14.502;2023-10-09T12:17:50;6.47;;;2.03;;
78889;SDS011;68279;48.964;14.502;2023-10-09T12:20:18;6.25;;;3.08;;
78889;SDS011;68279;48.964;14.502;2023-10-09T12:23:00;4.95;;;2.10;;
78889;SDS011;68279;48.964;14.502;2023-10-09T12:25:30;6.40;;;2.63;;
78889;SDS011;68279;48.964;14.502;2023-10-09T12:27:59;6.40;;;2.75;;
78889;SDS011;68279;48.964;14.502;2023-10-09T12:30:28;6.97;;;3.00;;
78889;SDS011;68279;48.964;14.502;2023-10-09T12:32:54;8.88;;;3.08;;
78889;SDS011;68279;48.964;14.502;2023-10-09T12:35:25;5.47;;;2.50;;
78889;SDS011;68279;48.964;14.502;2023-10-09T12:37:52;7.60;;;3.13;;
78889;SDS011;68279;48.964;14.502;2023-10-09T12:40:22;6.80;;;2.67;;
78889;SDS011;68279;48.964;14.502;2023-10-09T12:42:54;7.13;;;2.72;;
78889;SDS011;68279;48.964;14.502;2023-10-09T12:45:25;8.48;;;2.75;;
78889;SDS011;68279;48.964;14.502;2023-10-09T12:47:54;8.15;;;3.15;;
78889;SDS011;68279;48.964;14.502;2023-10-09T12:50:35;6.55;;;2.88;;
78889;SDS011;68279;48.964;14.502;2023-10-09T12:53:07;7.65;;;3.20;;
78889;SDS011;68279;48.964;14.502;2023-10-09T12:55:37;7.80;;;3.13;;
78889;SDS011;68279;48.964;14.502;2023-10-09T12:58:07;8.48;;;3.45;;
78889;SDS011;68279;48.964;14.502;2023-10-09T13:00:35;10.88;;;3.35;;
78889;SDS011;68279;48.964;14.502;2023-10-09T13:03:10;8.77;;;2.92;;
78889;SDS011;68279;48.964;14.502;2023-10-09T13:05:43;7.78;;;3.28;;
78889;SDS011;68279;48.964;14.502;2023-10-09T13:08:23;9.93;;;3.50;;
78889;SDS011;68279;48.964;14.502;2023-10-09T13:10:52;7.32;;;2.83;;
78889;SDS011;68279;48.964;14.502;2023-10-09T13:13:25;12.60;;;4.50;;
78889;SDS011;68279;48.964;14.502;2023-10-09T13:16:01;8.48;;;3.80;;
78889;SDS011;68279;48.964;14.502;2023-10-09T13:18:31;8.10;;;4.28;;
78889;SDS011;68279;48.964;14.502;2023-10-09T13:20:57;9.05;;;4.60;;
78889;SDS011;68279;48.964;14.502;2023-10-09T13:23:22;8.85;;;3.30;;
78889;SDS011;68279;48.964;14.502;2023-10-09T13:25:57;9.15;;;4.05;;
78889;SDS011;68279;48.964;14.502;2023-10-09T13:30:54;5.88;;;3.00;;
78889;SDS011;68279;48.964;14.502;2023-10-09T13:33:20;5.38;;;3.03;;
78889;SDS011;68279;48.964;14.502;2023-10-09T13:35:47;7.18;;;3.10;;
78889;SDS011;68279;48.964;14.502;2023-10-09T13:38:16;7.00;;;3.05;;
78889;SDS011;68279;48.964;14.502;2023-10-09T13:40:42;6.55;;;3.08;;
78889;SDS011;68279;48.964;14.502;2023-10-09T13:43:07;8.85;;;3.05;;
78889;SDS011;68279;48.964;14.502;2023-10-09T13:45:41;9.10;;;3.30;;
78889;SDS011;68279;48.964;14.502;2023-10-09T13:48:14;5.50;;;2.70;;
78889;SDS011;68279;48.964;14.502;2023-10-09T13:50:42;8.75;;;3.22;;
78889;SDS011;68279;48.964;14.502;2023-10-09T13:53:09;8.50;;;3.38;;
78889;SDS011;68279;48.964;14.502;2023-10-09T13:55:37;10.10;;;3.85;;
78889;SDS011;68279;48.964;14.502;2023-10-09T13:58:09;13.23;;;4.30;;
78889;SDS011;68279;48.964;14.502;2023-10-09T14:00:39;7.20;;;4.10;;
78889;SDS011;68279;48.964;14.502;2023-10-09T14:03:07;13.32;;;6.97;;
78889;SDS011;68279;48.964;14.502;2023-10-09T14:05:39;18.90;;;8.73;;
78889;SDS011;68279;48.964;14.502;2023-10-09T14:08:22;13.45;;;7.32;;
78889;SDS011;68279;48.964;14.502;2023-10-09T14:10:51;17.25;;;7.03;;
78889;SDS011;68279;48.964;14.502;2023-10-09T14:13:17;12.70;;;6.90;;
78889;SDS011;68279;48.964;14.502;2023-10-09T14:15:51;10.10;;;5.35;;
78889;SDS011;68279;48.964;14.502;2023-10-09T14:18:20;9.40;;;5.03;;
78889;SDS011;68279;48.964;14.502;2023-10-09T14:20:46;8.07;;;4.22;;
78889;SDS011;68279;48.964;14.502;2023-10-09T14:23:12;8.32;;;4.68;;
78889;SDS011;68279;48.964;14.502;2023-10-09T14:25:46;9.75;;;4.25;;
78889;SDS011;68279;48.964;14.502;2023-10-09T14:28:15;7.78;;;4.32;;
78889;SDS011;68279;48.964;14.502;2023-10-09T14:30:44;10.27;;;4.63;;
78889;SDS011;68279;48.964;14.502;2023-10-09T14:33:12;14.27;;;4.93;;
78889;SDS011;68279;48.964;14.502;2023-10-09T14:35:41;12.38;;;6.47;;
78889;SDS011;68279;48.964;14.502;2023-10-09T14:38:07;13.02;;;6.13;;
78889;SDS011;68279;48.964;14.502;2023-10-09T14:40:44;11.30;;;6.20;;
78889;SDS011;68279;48.964;14.502;2023-10-09T14:43:10;13.75;;;6.90;;
78889;SDS011;68279;48.964;14.502;2023-10-09T14:45:48;11.20;;;5.88;;
78889;SDS011;68279;48.964;14.502;2023-10-09T14:48:15;8.98;;;5.22;;
78889;SDS011;68279;48.964;14.502;2023-10-09T14:50:49;9.13;;;5.68;;
78889;SDS011;68279;48.964;14.502;2023-10-09T14:53:23;11.90;;;6.38;;
78889;SDS011;68279;48.964;14.502;2023-10-09T14:55:55;10.30;;;5.57;;
78889;SDS011;68279;48.964;14.502;2023-10-09T14:58:22;15.13;;;6.22;;
78889;SDS011;68279;48.964;14.502;2023-10-09T15:00:51;8.73;;;5.10;;
78889;SDS011;68279;48.964;14.502;2023-10-09T15:03:18;11.68;;;5.93;;
78889;SDS011;68279;48.964;14.502;2023-10-09T15:05:45;9.95;;;5.10;;
78889;SDS011;68279;48.964;14.502;2023-10-09T15:08:14;12.65;;;6.03;;
78889;SDS011;68279;48.964;14.502;2023-10-09T15:10:50;11.02;;;5.38;;
78889;SDS011;68279;48.964;14.502;2023-10-09T15:13:21;12.60;;;5.30;;
78889;SDS011;68279;48.964;14.502;2023-10-09T15:15:53;8.95;;;4.55;;
78889;SDS011;68279;48.964;14.502;2023-10-09T15:18:20;8.55;;;4.53;;
78889;SDS011;68279;48.964;14.502;2023-10-09T15:20:47;11.32;;;4.97;;
78889;SDS011;68279;48.964;14.502;2023-10-09T15:23:14;9.73;;;5.50;;
78889;SDS011;68279;48.964;14.502;2023-10-09T15:25:39;10.57;;;5.32;;
78889;SDS011;68279;48.964;14.502;2023-10-09T15:28:07;10.32;;;4.63;;
78889;SDS011;68279;48.964;14.502;2023-10-09T15:30:36;7.78;;;4.75;;
78889;SDS011;68279;48.964;14.502;2023-10-09T15:35:36;9.00;;;3.88;;
78889;SDS011;68279;48.964;14.502;2023-10-09T15:38:03;7.70;;;3.70;;